createdAt,value
2019-06-07T00:04:43.465Z,18.20
2019-06-07T00:09:47.151Z,17.90
2019-06-07T00:14:50.895Z,17.80
2019-06-07T00:19:54.918Z,17.80
2019-06-07T00:24:58.870Z,17.90
2019-06-07T00:30:29.574Z,17.80
2019-06-07T00:35:09.116Z,17.70
2019-06-07T00:40:17.859Z,17.80
2019-06-07T00:45:21.861Z,17.80
2019-06-07T00:50:24.514Z,17.70
2019-06-07T00:55:28.389Z,17.70
2019-06-07T01:00:32.074Z,17.70
2019-06-07T01:05:35.774Z,17.70
2019-06-07T01:10:53.037Z,17.40
2019-06-07T01:15:45.212Z,17.30
2019-06-07T01:20:48.917Z,17.30
2019-06-07T01:25:52.597Z,17.70
2019-06-07T01:30:56.266Z,17.40
2019-06-07T01:35:59.971Z,16.90
2019-06-07T01:41:03.899Z,16.70
2019-06-07T01:46:07.624Z,16.60
2019-06-07T01:51:11.341Z,16.50
2019-06-07T01:56:15.030Z,16.30
2019-06-07T02:01:20.916Z,16.20
2019-06-07T02:06:29.200Z,16.30
2019-06-07T02:11:31.812Z,16.40
2019-06-07T02:16:35.555Z,16.60
2019-06-07T02:21:39.466Z,16.40
2019-06-07T02:26:43.626Z,16.20
2019-06-07T02:31:47.297Z,16.20
2019-06-07T02:36:51.284Z,16.10
2019-06-07T02:41:55.416Z,15.90
2019-06-07T02:46:59.389Z,15.90
2019-06-07T02:52:03.201Z,16.00
2019-06-07T02:57:07.144Z,15.80
2019-06-07T03:02:11.140Z,15.70
2019-06-07T03:07:16.310Z,15.50
2019-06-07T03:12:21.952Z,15.60
2019-06-07T03:17:40.205Z,15.40
2019-06-07T03:22:43.485Z,15.40
2019-06-07T03:27:50.201Z,15.30
2019-06-07T03:32:53.985Z,15.50
2019-06-07T03:37:57.641Z,15.50
2019-06-07T03:43:01.361Z,15.40
2019-06-07T03:48:05.033Z,15.50
2019-06-07T03:53:08.706Z,15.50
2019-06-07T04:03:32.876Z,16.30
2019-06-07T04:08:23.450Z,16.50
2019-06-07T04:13:30.535Z,16.70
2019-06-07T04:18:33.147Z,16.90
2019-06-07T04:23:45.128Z,16.80
2019-06-07T04:33:49.830Z,16.90
2019-06-07T04:38:54.296Z,17.10
2019-06-07T04:43:59.898Z,17.30
2019-06-07T04:49:04.651Z,17.30
2019-06-07T04:54:08.418Z,17.50
2019-06-07T04:59:12.395Z,17.70
2019-06-07T05:04:16.082Z,18.20
2019-06-07T05:09:19.821Z,18.10
2019-06-07T05:14:23.787Z,18.10
2019-06-07T05:19:27.737Z,18.20
2019-06-07T05:24:34.840Z,18.60
2019-06-07T05:29:40.631Z,18.90
2019-06-07T05:34:47.174Z,19.20
2019-06-07T05:39:48.682Z,18.90
2019-06-07T05:44:52.604Z,18.50
2019-06-07T05:49:56.539Z,18.60
2019-06-07T05:55:00.370Z,18.60
2019-06-07T06:00:04.887Z,18.60
2019-06-07T06:05:08.963Z,18.60
2019-06-07T06:10:12.944Z,18.80
2019-06-07T06:15:16.866Z,18.70
2019-06-07T06:20:20.964Z,18.80
2019-06-07T06:25:33.788Z,19.10
2019-06-07T06:30:30.164Z,19.80
2019-06-07T06:35:33.883Z,20.40
2019-06-07T06:40:38.911Z,20.60
2019-06-07T06:45:46.905Z,20.60
2019-06-07T06:50:52.208Z,20.20
2019-06-07T06:55:54.132Z,19.90
2019-06-07T07:01:06.352Z,19.90
2019-06-07T07:06:24.680Z,20.00
2019-06-07T07:11:11.321Z,20.30
2019-06-07T07:16:15.172Z,20.60
2019-06-07T07:21:19.210Z,20.70
2019-06-07T07:26:23.008Z,20.60
2019-06-07T07:31:26.758Z,20.30
2019-06-07T07:36:39.425Z,20.30
2019-06-07T07:41:35.930Z,20.50
2019-06-07T07:46:39.672Z,20.90
2019-06-07T07:51:44.029Z,21.40
2019-06-07T07:56:49.092Z,22.00
2019-06-07T08:01:56.011Z,22.20
2019-06-07T08:06:59.157Z,22.20
2019-06-07T08:12:03.039Z,22.20
2019-06-07T08:17:06.870Z,22.50
2019-06-07T08:22:10.607Z,22.70
2019-06-07T08:27:25.976Z,22.70
2019-06-07T08:32:19.947Z,23.50
2019-06-07T08:37:23.684Z,24.00
2019-06-07T08:42:37.028Z,24.10
2019-06-07T08:47:32.851Z,24.50
2019-06-07T08:52:36.799Z,24.80
2019-06-07T08:57:40.555Z,23.90
2019-06-07T09:02:44.306Z,23.10
2019-06-07T09:08:00.910Z,22.90
2019-06-07T09:12:59.565Z,22.90
2019-06-07T09:23:15.449Z,22.10
2019-06-07T09:28:19.176Z,23.10
2019-06-07T09:33:16.132Z,24.10
2019-06-07T09:38:25.829Z,24.70
2019-06-07T09:53:36.786Z,26.70
2019-06-07T09:58:52.161Z,27.20
2019-06-07T10:03:46.543Z,25.70
2019-06-07T10:13:55.729Z,28.80
2019-06-07T10:19:01.441Z,28.50
2019-06-07T10:24:05.553Z,29.90
2019-06-07T10:29:10.377Z,29.40
2019-06-07T10:34:14.126Z,31.10
2019-06-07T10:39:17.955Z,32.10
2019-06-07T10:44:21.625Z,33.70
2019-06-07T10:49:25.385Z,32.50
2019-06-07T10:54:30.794Z,29.60
2019-06-07T10:59:34.496Z,28.20
2019-06-07T11:04:38.240Z,30.00
2019-06-07T11:09:41.985Z,32.80
2019-06-07T11:14:45.735Z,33.10
2019-06-07T11:19:49.458Z,35.20
2019-06-07T11:24:53.291Z,35.90
2019-06-07T11:29:57.030Z,36.00
2019-06-07T11:35:00.720Z,39.00
2019-06-07T11:40:04.816Z,35.30
2019-06-07T11:45:10.501Z,34.80
2019-06-07T11:50:15.809Z,37.30
2019-06-07T11:55:19.667Z,36.20
2019-06-07T12:00:23.694Z,36.70
2019-06-07T12:05:27.468Z,37.40
2019-06-07T12:10:42.176Z,38.10
2019-06-07T12:15:36.634Z,39.30
2019-06-07T12:20:40.464Z,40.20
2019-06-07T12:25:44.179Z,38.90
2019-06-07T12:30:47.889Z,37.90
2019-06-07T12:35:51.597Z,35.70
2019-06-07T12:40:57.921Z,36.70
2019-06-07T12:46:01.195Z,35.00
2019-06-07T12:51:05.154Z,36.70
2019-06-07T12:56:08.872Z,36.40
2019-06-07T13:01:13.785Z,36.60
2019-06-07T13:06:17.933Z,37.90
2019-06-07T13:11:27.720Z,37.60
2019-06-07T13:16:28.452Z,38.00
2019-06-07T13:21:32.355Z,37.50
2019-06-07T13:26:36.316Z,37.40
2019-06-07T13:31:40.050Z,37.30
2019-06-07T13:36:44.066Z,38.10
2019-06-07T13:41:47.863Z,37.90
2019-06-07T13:46:51.650Z,37.30
2019-06-07T13:51:55.379Z,34.40
2019-06-07T13:57:02.574Z,35.00
2019-06-07T14:02:05.113Z,36.80
2019-06-07T14:07:08.884Z,36.00
2019-06-07T14:12:12.634Z,34.80
2019-06-07T14:17:16.318Z,35.20
2019-06-07T14:22:20.574Z,35.30
2019-06-07T14:27:25.456Z,34.20
2019-06-07T14:32:30.850Z,34.30
2019-06-07T14:37:34.839Z,34.30
2019-06-07T14:42:38.859Z,34.10
2019-06-07T14:47:42.912Z,34.00
2019-06-07T14:52:46.824Z,33.10
2019-06-07T14:57:50.583Z,33.00
2019-06-07T15:02:54.368Z,35.10
2019-06-07T15:07:58.161Z,36.00
2019-06-07T15:13:01.936Z,36.60
2019-06-07T15:18:05.612Z,35.80
2019-06-07T15:23:09.313Z,32.50
2019-06-07T15:28:13.075Z,31.00
2019-06-07T15:33:16.809Z,30.50
2019-06-07T15:38:20.488Z,31.40
2019-06-07T15:43:24.170Z,32.20
2019-06-07T15:48:29.720Z,32.90
2019-06-07T15:53:39.085Z,31.50
2019-06-07T15:58:39.419Z,31.20
2019-06-07T16:03:43.462Z,30.80
2019-06-07T16:08:47.280Z,30.70
2019-06-07T16:13:53.789Z,30.40
2019-06-07T16:18:57.661Z,30.30
2019-06-07T16:24:01.599Z,29.80
2019-06-07T16:29:05.322Z,28.90
2019-06-07T16:34:09.052Z,28.50
2019-06-07T16:39:12.764Z,29.50
2019-06-07T16:44:17.626Z,30.00
2019-06-07T16:49:21.293Z,29.50
2019-06-07T16:54:25.015Z,29.00
2019-06-07T16:59:28.718Z,28.60
2019-06-07T17:04:32.664Z,28.80
2019-06-07T17:09:36.341Z,28.80
2019-06-07T17:14:40.536Z,28.50
2019-06-07T17:19:45.004Z,28.80
2019-06-07T17:24:49.868Z,28.10
2019-06-07T17:29:53.771Z,28.10
2019-06-07T17:34:57.482Z,27.80
2019-06-07T17:40:01.235Z,27.50
2019-06-07T17:45:06.041Z,27.50
2019-06-07T17:50:10.804Z,27.70
2019-06-07T17:55:16.615Z,27.40
2019-06-07T18:00:29.178Z,27.50
2019-06-07T18:05:27.294Z,27.70
2019-06-07T18:10:35.953Z,27.40
2019-06-07T18:15:41.521Z,27.10
2019-06-07T18:20:45.379Z,27.10
2019-06-07T18:25:50.463Z,26.80
2019-06-07T18:30:54.883Z,26.60
2019-06-07T18:35:59.470Z,26.40
2019-06-07T18:41:03.207Z,26.20
2019-06-07T18:46:07.060Z,26.10
2019-06-07T18:51:10.804Z,25.90
2019-06-07T18:56:14.527Z,25.70
2019-06-07T19:01:18.233Z,25.50
2019-06-07T19:06:21.917Z,25.30
2019-06-07T19:11:25.569Z,25.00
2019-06-07T19:16:29.544Z,24.80
2019-06-07T19:21:33.234Z,24.60
2019-06-07T19:26:37.205Z,24.40
2019-06-07T19:31:42.972Z,24.30
2019-06-07T19:36:49.079Z,24.20
2019-06-07T19:41:52.082Z,24.10
2019-06-07T19:46:56.540Z,23.80
2019-06-07T19:52:01.107Z,23.70
2019-06-07T19:57:05.057Z,23.60
2019-06-07T20:02:09.255Z,23.60
2019-06-07T20:07:12.974Z,23.40
2019-06-07T20:12:16.925Z,23.00
2019-06-07T20:17:20.692Z,22.90
2019-06-07T20:22:27.797Z,23.10
2019-06-07T20:27:31.694Z,23.00
2019-06-07T20:32:35.738Z,22.80
2019-06-07T20:37:39.532Z,22.60
2019-06-07T20:42:43.227Z,22.40
2019-06-07T20:47:46.966Z,22.40
2019-06-07T20:52:50.708Z,22.40
2019-06-07T20:57:54.371Z,22.40
2019-06-07T21:02:59.323Z,22.40
2019-06-07T21:08:04.146Z,22.40
2019-06-07T21:13:08.542Z,22.20
2019-06-07T21:18:19.362Z,22.20
2019-06-07T21:23:17.742Z,22.10
2019-06-07T21:28:21.465Z,22.10
2019-06-07T21:33:25.185Z,22.10
2019-06-07T21:38:28.923Z,22.10
2019-06-07T21:43:32.979Z,22.10
2019-06-07T21:48:36.643Z,22.20
2019-06-07T21:53:40.327Z,22.30
2019-06-07T21:58:44.074Z,22.20
2019-06-07T22:03:48.091Z,22.20
2019-06-07T22:08:51.776Z,22.20
2019-06-07T22:13:55.474Z,22.50
2019-06-07T22:18:59.410Z,22.40
2019-06-07T22:24:03.137Z,22.40
2019-06-07T22:29:08.161Z,22.10
2019-06-07T22:34:12.774Z,22.00
2019-06-07T22:39:17.849Z,21.90
2019-06-07T22:44:22.142Z,21.50
2019-06-07T22:49:25.989Z,21.50
2019-06-07T22:54:29.816Z,21.60
2019-06-07T22:59:33.547Z,21.50
2019-06-07T23:04:37.700Z,21.50
2019-06-07T23:09:41.389Z,21.50
2019-06-07T23:14:45.274Z,21.50
2019-06-07T23:19:48.940Z,21.50
2019-06-07T23:24:52.630Z,21.50
2019-06-07T23:29:56.555Z,21.40
2019-06-07T23:35:00.230Z,21.40
2019-06-07T23:40:04.245Z,21.40
2019-06-07T23:45:09.068Z,21.10
2019-06-07T23:50:13.724Z,20.90
2019-06-07T23:55:17.976Z,20.50
